Time;durP1;ratioP1;P1;durP2;ratioP2;P2;SDS_P1;SDS_P2;PMS_P1;PMS_P2;Temp;Humidity;BMP_temperature;BMP_pressure;BME280_temperature;BME280_humidity;BME280_pressure;Samples;Min_cycle;Max_cycle;Signal;HPM_P1;HPM_P2
2022/03/29 00:02:01;;;;;;;19.07;11.93;;;;;;;13.93;31.48;100538.38;10381797;28;20217;-88
2022/03/29 00:07:04;;;;;;;21.17;12.77;;;;;;;13.89;31.48;100543.13;10350374;28;20208;-88
2022/03/29 00:12:06;;;;;;;18.67;13.10;;;;;;;13.96;31.30;100529.94;10405213;28;20641;-88
2022/03/29 00:17:08;;;;;;;23.40;13.17;;;;;;;13.51;31.99;100518.97;10389505;28;20235;-87
2022/03/29 00:22:11;;;;;;;19.40;12.33;;;;;;;13.15;32.55;100520.00;10405979;28;20278;-88
2022/03/29 00:27:13;;;;;;;21.70;11.73;;;;;;;13.75;31.96;100509.47;10408106;28;20247;-87
2022/03/29 00:32:16;;;;;;;21.20;12.37;;;;;;;12.89;33.30;100513.94;10407598;28;20239;-88
2022/03/29 00:37:18;;;;;;;18.60;12.00;;;;;;;13.58;32.03;100499.28;10388290;28;20208;-88
2022/03/29 00:42:20;;;;;;;21.20;13.30;;;;;;;13.85;31.56;100491.06;10379923;28;20516;-88
2022/03/29 00:47:23;;;;;;;19.73;12.97;;;;;;;13.59;31.90;100489.56;10383840;28;20613;-88
2022/03/29 00:52:26;;;;;;;18.63;13.67;;;;;;;13.17;32.47;100482.72;10404865;28;20290;-88
2022/03/29 00:57:29;;;;;;;20.87;13.30;;;;;;;13.82;31.48;100481.25;10404298;28;20196;-88
2022/03/29 01:02:31;;;;;;;20.00;14.17;;;;;;;13.71;31.79;100480.16;10420066;28;20220;-87
2022/03/29 01:07:34;;;;;;;22.23;13.20;;;;;;;13.45;31.96;100477.84;10403250;28;20259;-88
2022/03/29 01:12:37;;;;;;;18.93;12.93;;;;;;;13.07;32.83;100481.25;10402895;28;20229;-88
2022/03/29 01:17:41;;;;;;;21.93;14.40;;;;;;;13.24;32.67;100471.56;10403089;28;20552;-88
2022/03/29 01:22:47;;;;;;;22.73;13.90;;;;;;;13.22;32.77;100473.94;10402628;28;20228;-88
2022/03/29 01:27:52;;;;;;;21.50;15.10;;;;;;;13.16;32.65;100466.88;10402224;28;20254;-88
2022/03/29 01:32:54;;;;;;;23.60;15.87;;;;;;;12.69;33.56;100475.22;10402295;28;20200;-88
2022/03/29 01:37:57;;;;;;;21.43;13.87;;;;;;;12.82;33.40;100466.28;10386247;28;20795;-87
2022/03/29 01:43:01;;;;;;;22.00;14.07;;;;;;;13.18;32.74;100456.81;10364890;28;20847;-87
2022/03/29 01:48:03;;;;;;;19.50;13.83;;;;;;;12.77;33.50;100465.72;10382888;28;20552;-88
2022/03/29 01:53:05;;;;;;;19.90;13.50;;;;;;;12.78;33.35;100459.69;10402167;28;20247;-88
2022/03/29 01:58:08;;;;;;;21.50;14.17;;;;;;;12.80;33.28;100462.19;10385303;28;20201;-87
2022/03/29 02:03:10;;;;;;;21.43;15.60;;;;;;;12.58;33.60;100465.53;10385457;28;20266;-87
2022/03/29 02:08:13;;;;;;;24.23;14.30;;;;;;;13.01;32.93;100451.47;10401845;28;20196;-87
2022/03/29 02:13:16;;;;;;;21.80;13.87;;;;;;;12.53;33.61;100458.97;10384762;28;20224;-88
2022/03/29 02:18:19;;;;;;;23.50;15.73;;;;;;;12.71;33.49;100444.47;10400811;28;20267;-87
2022/03/29 02:23:21;;;;;;;23.77;15.87;;;;;;;12.61;33.53;100442.97;10401575;28;20282;-87
2022/03/29 02:28:23;;;;;;;26.17;16.10;;;;;;;12.62;33.59;100438.13;10386104;28;20205;-87
2022/03/29 02:33:25;;;;;;;26.47;16.93;;;;;;;12.92;33.26;100435.78;10386949;28;20189;-86
2022/03/29 02:38:28;;;;;;;27.57;16.93;;;;;;;13.01;33.28;100425.91;10386101;28;20271;-87
2022/03/29 02:43:30;;;;;;;25.37;17.87;;;;;;;12.80;33.89;100422.47;10398983;28;20236;-87
2022/03/29 02:48:32;;;;;;;25.63;17.00;;;;;;;12.72;33.74;100403.56;10398528;28;20208;-87
2022/03/29 02:53:34;;;;;;;27.40;17.30;;;;;;;12.12;34.92;100417.59;10401537;28;20659;-86
2022/03/29 02:58:36;;;;;;;29.10;20.30;;;;;;;12.45;34.17;100405.19;10400980;28;20200;-87
2022/03/29 03:03:39;;;;;;;31.67;21.50;;;;;;;11.51;36.10;100404.63;10386402;28;20750;-88
2022/03/29 03:08:41;;;;;;;26.63;20.37;;;;;;;12.71;34.19;100391.38;10350408;28;20276;-88
2022/03/29 03:13:43;;;;;;;28.33;20.43;;;;;;;12.34;35.02;100393.56;10357980;28;20221;-87
2022/03/29 03:18:46;;;;;;;28.93;20.80;;;;;;;12.71;34.03;100388.56;10373775;28;20271;-87
2022/03/29 03:23:48;;;;;;;31.00;21.73;;;;;;;12.97;33.79;100381.59;10358268;28;20679;-87
2022/03/29 03:28:50;;;;;;;30.60;21.77;;;;;;;12.06;35.26;100384.97;10395847;28;20204;-88
2022/03/29 03:33:53;;;;;;;28.87;21.70;;;;;;;12.32;34.88;100378.06;10356311;28;20503;-87
2022/03/29 03:38:56;;;;;;;34.37;23.87;;;;;;;12.34;34.98;100378.56;10366156;28;20271;-87
2022/03/29 03:43:58;;;;;;;33.33;22.60;;;;;;;12.08;35.09;100378.94;10365883;28;20225;-87
2022/03/29 03:49:01;;;;;;;31.80;22.83;;;;;;;12.37;35.01;100372.16;10365176;28;20271;-87
2022/03/29 03:54:03;;;;;;;31.70;23.13;;;;;;;12.27;34.92;100365.00;10365686;28;20251;-87
2022/03/29 03:59:05;;;;;;;33.07;22.90;;;;;;;12.18;35.25;100367.13;10389908;28;20201;-88
2022/03/29 04:04:08;;;;;;;30.00;22.03;;;;;;;12.20;35.09;100365.59;10349828;28;20291;-87
2022/03/29 04:09:10;;;;;;;31.30;22.77;;;;;;;11.79;35.68;100352.56;10422213;28;20196;-88
2022/03/29 04:14:13;;;;;;;32.53;23.53;;;;;;;11.66;35.78;100355.75;10405998;28;20645;-87
2022/03/29 04:19:15;;;;;;;29.53;23.37;;;;;;;11.32;36.57;100351.41;10378598;28;20259;-87
2022/03/29 04:24:17;;;;;;;35.13;25.53;;;;;;;11.19;37.20;100353.38;10347179;28;20711;-87
2022/03/29 04:29:19;;;;;;;36.07;25.03;;;;;;;11.22;36.90;100354.69;10353577;28;20209;-87
2022/03/29 04:34:22;;;;;;;35.03;24.77;;;;;;;11.66;35.85;100333.09;10405351;28;20193;-88
2022/03/29 04:39:25;;;;;;;35.73;26.97;;;;;;;11.30;36.92;100340.44;10404589;28;20205;-86
2022/03/29 04:44:28;;;;;;;37.37;25.00;;;;;;;11.24;36.69;100339.00;10403827;28;20266;-86
2022/03/29 04:49:30;;;;;;;36.17;26.90;;;;;;;11.63;36.13;100333.84;10404325;28;20605;-86
2022/03/29 04:54:32;;;;;;;40.60;27.07;;;;;;;12.15;35.38;100329.03;10403793;28;20262;-87
2022/03/29 04:59:35;;;;;;;36.80;26.13;;;;;;;11.71;36.15;100327.22;10404168;28;20597;-87
2022/03/29 05:04:37;;;;;;;42.87;27.47;;;;;;;11.58;36.51;100319.91;10351016;28;20303;-86
2022/03/29 05:09:39;;;;;;;37.80;28.53;;;;;;;11.32;36.90;100317.44;10370100;28;20687;-88
2022/03/29 05:14:42;;;;;;;40.17;29.63;;;;;;;10.91;37.64;100318.44;10357320;28;20322;-88
2022/03/29 05:19:44;;;;;;;39.63;27.90;;;;;;;11.17;37.11;100310.47;10363997;28;20201;-88
2022/03/29 05:24:46;;;;;;;42.10;27.93;;;;;;;11.32;37.15;100306.97;10413229;28;20262;-88
2022/03/29 05:29:48;;;;;;;45.33;29.80;;;;;;;11.00;37.65;100296.56;10366147;28;20675;-88
2022/03/29 05:34:50;;;;;;;43.97;30.13;;;;;;;10.60;38.50;100297.19;10380529;28;20206;-88
2022/03/29 05:39:53;;;;;;;46.13;29.90;;;;;;;11.37;36.92;100298.25;10370282;28;20200;-87
2022/03/29 05:44:55;;;;;;;48.53;30.60;;;;;;;10.59;38.30;100306.84;10376666;28;20225;-88
2022/03/29 05:49:57;;;;;;;46.03;30.93;;;;;;;10.18;39.28;100312.56;10363128;28;20209;-89
2022/03/29 05:55:00;;;;;;;50.57;30.53;;;;;;;11.33;37.38;100302.94;10378097;28;20206;-88
2022/03/29 06:00:04;;;;;;;51.23;31.30;;;;;;;10.76;37.92;100300.97;10366729;28;20205;-88
2022/03/29 06:05:07;;;;;;;54.20;31.97;;;;;;;11.11;37.34;100301.41;10360744;28;20225;-88
2022/03/29 06:10:11;;;;;;;53.50;30.87;;;;;;;10.93;37.60;100299.13;10388631;28;20205;-88
2022/03/29 06:15:15;;;;;;;56.77;33.07;;;;;;;11.17;37.29;100301.97;10330805;28;20233;-88
2022/03/29 06:20:17;;;;;;;50.70;32.43;;;;;;;10.94;37.53;100300.78;10331375;28;20256;-89
2022/03/29 06:25:19;;;;;;;53.60;32.60;;;;;;;11.51;36.74;100305.53;10319827;28;20234;-88
2022/03/29 06:30:22;;;;;;;49.23;30.63;;;;;;;11.33;37.01;100302.13;10309775;28;20237;-88
2022/03/29 06:35:26;;;;;;;55.50;33.20;;;;;;;11.34;36.82;100298.94;10321421;28;20214;-88
2022/03/29 06:40:29;;;;;;;53.43;33.13;;;;;;;11.13;37.34;100301.03;10319957;28;20213;-88
2022/03/29 06:45:31;;;;;;;52.97;32.07;;;;;;;11.24;37.20;100299.38;10319776;28;20214;-88
2022/03/29 06:50:35;;;;;;;50.93;32.87;;;;;;;10.88;38.07;100297.34;10349238;28;20516;-87
2022/03/29 06:55:37;;;;;;;53.50;32.73;;;;;;;11.27;37.25;100304.31;10354457;28;20484;-88
2022/03/29 07:00:40;;;;;;;55.47;33.53;;;;;;;11.27;37.20;100309.16;10354138;28;20201;-88
2022/03/29 07:05:42;;;;;;;59.73;34.80;;;;;;;11.31;37.04;100310.97;10333914;28;20237;-88
2022/03/29 07:16:06;;;;;;;56.23;33.30;;;;;;;11.49;37.01;100305.91;10374376;28;20329;-88
2022/03/29 07:21:10;;;;;;;52.00;33.47;;;;;;;11.58;36.74;100314.25;10367210;28;20206;-88
2022/03/29 07:26:12;;;;;;;57.80;36.50;;;;;;;11.37;37.15;100309.56;10367731;28;20537;-88
2022/03/29 07:31:14;;;;;;;49.60;32.90;;;;;;;10.73;38.28;100315.84;10367456;28;20206;-88
2022/03/29 07:36:16;;;;;;;49.87;31.20;;;;;;;11.69;36.33;100315.41;10386417;28;20225;-88
2022/03/29 07:41:19;;;;;;;50.47;33.77;;;;;;;11.44;37.24;100315.44;10359411;28;20602;-88
2022/03/29 07:46:21;;;;;;;54.93;35.67;;;;;;;11.53;36.98;100306.81;10365285;28;20237;-88
2022/03/29 07:51:24;;;;;;;48.00;32.80;;;;;;;10.94;37.87;100312.94;10366376;28;20205;-88
2022/03/29 07:56:26;;;;;;;51.20;33.40;;;;;;;11.74;37.00;100320.84;10365476;28;20198;-88
2022/03/29 08:01:29;;;;;;;58.30;36.20;;;;;;;10.99;38.44;100315.53;10332133;28;20209;-88
2022/03/29 08:06:31;;;;;;;54.33;33.87;;;;;;;11.44;37.18;100321.09;10364325;28;20518;-88
2022/03/29 08:11:36;;;;;;;56.00;36.10;;;;;;;11.29;37.35;100321.81;10351406;28;20667;-88
2022/03/29 08:16:38;;;;;;;53.57;33.40;;;;;;;11.30;37.94;100319.81;10387039;28;20244;-88
2022/03/29 08:21:49;;;;;;;53.90;34.30;;;;;;;11.62;36.81;100306.69;10405171;28;20659;-88
2022/03/29 08:26:54;;;;;;;55.70;34.93;;;;;;;11.28;38.13;100297.47;10390483;28;20707;-88
2022/03/29 08:32:02;;;;;;;50.87;32.90;;;;;;;12.09;35.92;100293.59;10364288;28;20197;-88
2022/03/29 08:37:05;;;;;;;48.43;33.17;;;;;;;11.85;36.86;100299.31;10380131;28;20202;-88
2022/03/29 08:42:11;;;;;;;48.50;32.73;;;;;;;11.79;37.08;100292.25;10369137;28;20208;-88
2022/03/29 08:47:15;;;;;;;47.37;32.90;;;;;;;12.16;36.10;100285.34;10363552;28;20626;-88
2022/03/29 08:52:20;;;;;;;47.53;31.17;;;;;;;11.84;36.47;100283.50;10347100;28;20206;-88
2022/03/29 08:57:22;;;;;;;48.57;33.00;;;;;;;11.42;37.36;100289.50;10350327;28;20331;-88
2022/03/29 09:02:25;;;;;;;54.60;34.03;;;;;;;11.96;36.38;100280.63;10385189;28;20506;-88
2022/03/29 09:07:45;;;;;;;47.97;32.63;;;;;;;12.28;35.75;100275.13;10377675;28;20295;-88
2022/03/29 09:12:48;;;;;;;51.63;32.83;;;;;;;11.79;36.64;100275.25;10376687;28;20232;-88
2022/03/29 09:17:50;;;;;;;45.93;30.67;;;;;;;12.22;36.11;100282.22;10403018;28;20221;-87
2022/03/29 09:22:55;;;;;;;49.77;29.90;;;;;;;11.48;37.10;100276.75;10419466;28;20262;-88
2022/03/29 09:28:00;;;;;;;53.17;33.63;;;;;;;12.77;35.62;100276.47;10365937;28;20214;-87
2022/03/29 09:33:24;;;;;;;51.37;32.23;;;;;;;12.55;35.45;100271.44;10362068;28;20212;-88
2022/03/29 09:38:34;;;;;;;52.60;32.07;;;;;;;12.70;35.33;100256.41;10349341;28;20599;-88
2022/03/29 09:43:36;;;;;;;50.50;32.37;;;;;;;12.69;35.63;100245.47;10364583;28;20276;-87
2022/03/29 09:48:42;;;;;;;46.07;29.90;;;;;;;12.93;35.16;100247.31;10360559;28;20271;-87
2022/03/29 09:53:47;;;;;;;48.53;31.17;;;;;;;12.82;34.86;100244.97;10377282;28;20190;-87
2022/03/29 09:59:04;;;;;;;49.73;33.43;;;;;;;12.35;35.53;100232.78;10331116;28;20213;-88
2022/03/29 10:04:07;;;;;;;48.50;32.50;;;;;;;12.23;36.07;100239.34;10385367;28;20216;-87
2022/03/29 10:09:29;;;;;;;52.17;32.70;;;;;;;13.20;34.42;100232.19;10360896;28;20205;-87
2022/03/29 10:14:34;;;;;;;49.83;33.50;;;;;;;12.15;36.18;100232.66;10359327;28;20268;-87
2022/03/29 10:19:38;;;;;;;57.37;34.07;;;;;;;12.74;35.85;100239.50;10359674;28;20600;-88
2022/03/29 10:24:40;;;;;;;49.13;33.33;;;;;;;12.03;36.84;100235.53;10375861;28;20267;-87
2022/03/29 10:29:42;;;;;;;50.57;31.40;;;;;;;12.99;34.82;100231.66;10357250;28;20251;-87
2022/03/29 10:35:00;;;;;;;52.87;33.47;;;;;;;12.81;35.33;100228.34;10355898;28;20267;-87
2022/03/29 10:40:05;;;;;;;50.20;32.57;;;;;;;12.54;35.51;100230.09;10342791;28;20267;-87
2022/03/29 10:45:10;;;;;;;53.57;31.47;;;;;;;12.07;36.55;100219.44;10388660;28;20291;-87
2022/03/29 10:50:54;;;;;;;49.83;30.07;;;;;;;12.87;35.12;100207.88;10368020;28;20606;-87
2022/03/29 10:56:13;;;;;;;52.70;32.40;;;;;;;12.31;35.80;100200.66;10386927;28;20264;-87
2022/03/29 11:01:15;;;;;;;48.63;29.97;;;;;;;12.16;35.73;100194.66;10367574;28;20274;-87
2022/03/29 11:06:18;;;;;;;47.87;28.87;;;;;;;13.04;34.57;100188.81;10372724;28;20633;-87
2022/03/29 11:11:43;;;;;;;50.17;30.67;;;;;;;13.14;34.35;100176.88;10366273;28;20197;-87
2022/03/29 11:16:45;;;;;;;43.77;25.77;;;;;;;13.60;33.46;100167.41;10347695;28;20279;-87
2022/03/29 11:21:47;;;;;;;43.50;25.97;;;;;;;13.67;32.88;100171.59;10354776;28;20594;-87
2022/03/29 11:26:55;;;;;;;41.63;25.57;;;;;;;14.23;32.38;100164.22;10347861;28;20229;-87
2022/03/29 11:32:01;;;;;;;41.50;26.47;;;;;;;12.61;34.72;100159.34;10364908;28;20201;-87
2022/03/29 11:37:04;;;;;;;40.60;26.30;;;;;;;13.57;33.13;100150.28;10368182;28;20219;-87
2022/03/29 11:42:06;;;;;;;49.97;27.27;;;;;;;13.47;33.43;100151.66;10378460;28;20212;-87
2022/03/29 11:47:08;;;;;;;64.17;35.87;;;;;;;12.85;34.04;100159.13;10364158;28;20221;-87
2022/03/29 11:52:13;;;;;;;56.33;34.40;;;;;;;13.43;33.47;100145.09;10360265;28;20275;-87
2022/03/29 11:57:16;;;;;;;68.07;39.43;;;;;;;14.26;32.56;100143.53;10355745;28;20283;-87
2022/03/29 12:02:21;;;;;;;59.10;36.53;;;;;;;13.40;33.33;100140.16;10349745;28;20202;-87
2022/03/29 12:07:42;;;;;;;60.20;37.47;;;;;;;12.69;34.27;100140.53;10349958;28;20233;-88
2022/03/29 12:12:51;;;;;;;57.33;35.73;;;;;;;13.45;33.02;100125.69;10346763;28;20629;-86
2022/03/29 12:18:45;;;;;;;58.33;34.47;;;;;;;13.01;33.81;100118.59;10368756;28;20688;-88
2022/03/29 12:23:27;;;;;;;52.07;32.97;;;;;;;13.82;31.98;100105.34;10368626;28;20529;-86
2022/03/29 12:28:30;;;;;;;53.90;34.10;;;;;;;13.40;32.89;100096.75;10376583;28;20751;-87
2022/03/29 12:33:34;;;;;;;48.40;32.17;;;;;;;14.01;32.03;100096.78;10380290;28;20259;-87
2022/03/29 12:38:45;;;;;;;50.87;32.17;;;;;;;14.05;31.37;100074.94;10349048;28;20229;-88
2022/03/29 12:43:54;;;;;;;45.83;31.37;;;;;;;14.40;30.91;100068.22;10361800;28;20256;-88
2022/03/29 12:48:56;;;;;;;44.30;29.60;;;;;;;14.69;30.10;100053.25;10376375;28;20282;-87
2022/03/29 12:54:04;;;;;;;38.10;26.57;;;;;;;13.75;31.97;100051.22;10381318;28;20271;-87
2022/03/29 12:59:27;;;;;;;42.20;28.23;;;;;;;15.14;29.52;100040.94;10346711;28;20228;-88
2022/03/29 13:04:59;;;;;;;35.03;24.67;;;;;;;13.91;31.19;100037.72;10377810;28;20213;-87
2022/03/29 13:10:16;;;;;;;35.07;23.77;;;;;;;14.32;30.31;100033.16;10341161;28;20811;-87
2022/03/29 13:15:41;;;;;;;31.17;21.40;;;;;;;14.56;29.97;100014.84;10377254;28;20251;-87
2022/03/29 13:20:44;;;;;;;35.03;23.03;;;;;;;15.42;29.29;99992.00;10382454;28;20205;-88
2022/03/29 13:25:46;;;;;;;32.63;22.60;;;;;;;14.43;30.12;100004.91;10345804;28;20275;-87
2022/03/29 13:30:48;;;;;;;32.57;22.67;;;;;;;14.70;29.72;99985.78;10331748;28;20217;-88
2022/03/29 13:35:51;;;;;;;35.43;23.40;;;;;;;14.55;30.33;99990.44;10359744;28;20205;-87
2022/03/29 13:40:53;;;;;;;30.50;22.87;;;;;;;14.42;29.77;99980.50;10348703;28;20206;-87
2022/03/29 13:45:55;;;;;;;31.07;22.10;;;;;;;14.76;29.52;99972.88;10362145;28;20542;-87
2022/03/29 13:50:59;;;;;;;31.40;22.00;;;;;;;15.05;28.95;99960.66;10374166;28;20228;-86
2022/03/29 13:56:02;;;;;;;30.47;22.43;;;;;;;14.66;28.55;99960.13;10361318;28;20209;-86
2022/03/29 14:01:05;;;;;;;32.23;21.93;;;;;;;15.64;27.82;99950.31;10354275;28;20479;-87
2022/03/29 14:06:07;;;;;;;33.50;23.10;;;;;;;14.76;28.43;99950.13;10379258;28;20638;-87
2022/03/29 14:11:10;;;;;;;28.33;22.77;;;;;;;15.78;27.69;99952.53;10343142;28;20205;-86
2022/03/29 14:16:12;;;;;;;31.02;22.75;;;;;;;14.57;29.91;99949.03;10356685;28;20612;-88
2022/03/29 14:21:14;;;;;;;38.13;23.23;;;;;;;15.38;28.12;99937.88;10360945;28;20228;-87
2022/03/29 14:26:17;;;;;;;28.33;21.97;;;;;;;15.27;27.48;99930.41;10340100;28;20252;-87
2022/03/29 14:31:19;;;;;;;31.30;21.67;;;;;;;15.68;27.28;99923.47;10349982;28;20259;-87
2022/03/29 14:36:23;;;;;;;26.97;20.73;;;;;;;15.12;27.58;99917.22;10359919;28;20197;-87
2022/03/29 14:41:25;;;;;;;34.13;21.83;;;;;;;15.05;27.90;99914.28;10378222;28;20232;-87
2022/03/29 14:46:28;;;;;;;27.90;19.50;;;;;;;15.46;27.41;99907.41;10357877;28;20229;-88
2022/03/29 14:51:32;;;;;;;28.87;21.03;;;;;;;16.19;26.88;99885.63;10359139;28;20222;-88
2022/03/29 14:56:34;;;;;;;31.23;20.87;;;;;;;15.62;27.08;99890.88;10343100;28;20870;-86
2022/03/29 15:01:37;;;;;;;26.43;20.87;;;;;;;15.75;26.60;99884.91;10335714;28;20345;-88
2022/03/29 15:06:40;;;;;;;28.33;20.50;;;;;;;16.07;26.51;99872.50;10355952;28;20630;-86
2022/03/29 15:11:43;;;;;;;24.93;19.27;;;;;;;16.34;26.38;99864.50;10364345;28;20216;-86
2022/03/29 15:16:45;;;;;;;29.70;19.80;;;;;;;15.27;27.58;99862.06;10381286;28;20291;-86
2022/03/29 15:21:47;;;;;;;27.20;19.17;;;;;;;16.36;25.92;99856.38;10372571;28;20212;-87
2022/03/29 15:26:50;;;;;;;32.80;20.43;;;;;;;16.33;26.61;99848.59;10405120;28;20560;-87
2022/03/29 15:31:53;;;;;;;28.50;20.20;;;;;;;15.60;27.16;99836.31;10388222;28;20594;-86
2022/03/29 15:37:09;;;;;;;28.87;20.00;;;;;;;16.15;26.64;99842.00;10364679;28;20590;-85
2022/03/29 15:42:13;;;;;;;27.65;20.92;;;;;;;15.94;25.80;99830.47;10347424;28;20255;-86
2022/03/29 15:47:20;;;;;;;24.70;18.70;;;;;;;15.17;26.83;99829.41;10363840;28;20641;-87
2022/03/29 15:52:23;;;;;;;25.67;19.00;;;;;;;16.53;25.33;99822.66;10370135;28;20201;-86
2022/03/29 15:57:26;;;;;;;28.33;18.87;;;;;;;16.11;26.44;99815.50;10346911;28;20282;-85
2022/03/29 16:02:28;;;;;;;30.40;20.13;;;;;;;15.58;26.38;99809.41;10390185;28;20232;-84
2022/03/29 16:07:31;;;;;;;26.93;19.67;;;;;;;16.18;26.55;99801.28;10366085;28;20221;-84
2022/03/29 16:12:35;;;;;;;28.27;20.53;;;;;;;15.84;26.38;99806.38;10346583;28;20233;-84
2022/03/29 16:17:40;;;;;;;25.27;19.30;;;;;;;16.18;25.96;99787.03;10364210;28;20686;-83
2022/03/29 16:22:43;;;;;;;27.77;19.53;;;;;;;16.50;25.63;99783.50;10390851;28;20205;-85
2022/03/29 16:27:46;;;;;;;26.03;19.43;;;;;;;15.68;26.50;99783.84;10396802;28;20224;-84
2022/03/29 16:32:48;;;;;;;26.20;18.73;;;;;;;16.39;25.39;99770.03;10401257;28;20590;-84
2022/03/29 16:37:51;;;;;;;25.47;18.47;;;;;;;15.82;26.00;99762.38;10373044;28;20197;-85
2022/03/29 16:42:54;;;;;;;29.63;19.50;;;;;;;15.47;26.70;99758.06;10346796;28;20197;-86
2022/03/29 16:47:56;;;;;;;26.73;19.07;;;;;;;15.95;26.28;99746.56;10336550;28;20303;-85
2022/03/29 16:52:59;;;;;;;27.67;18.27;;;;;;;16.07;25.69;99757.63;10361638;28;20201;-87
2022/03/29 16:58:01;;;;;;;26.00;18.70;;;;;;;15.62;25.80;99748.41;10386810;28;20244;-86
2022/03/29 17:03:05;;;;;;;30.30;18.23;;;;;;;16.03;25.64;99751.09;10362850;28;20656;-86
2022/03/29 17:08:09;;;;;;;28.50;18.53;;;;;;;16.09;25.36;99752.34;10379483;28;20220;-86
2022/03/29 17:13:11;;;;;;;26.43;18.30;;;;;;;15.93;25.77;99752.69;10381996;28;20232;-87
2022/03/29 17:18:13;;;;;;;27.47;19.10;;;;;;;15.53;25.67;99756.50;10402669;28;20213;-85
2022/03/29 17:23:37;;;;;;;30.13;19.40;;;;;;;14.75;26.55;99752.97;10381319;28;20265;-86
2022/03/29 17:28:40;;;;;;;28.20;18.30;;;;;;;15.34;25.81;99753.91;10391449;28;20315;-85
2022/03/29 17:33:42;;;;;;;29.87;19.53;;;;;;;15.05;26.13;99752.84;10374125;28;20259;-87
2022/03/29 17:38:46;;;;;;;29.93;18.33;;;;;;;15.42;24.89;99755.56;10342904;28;20244;-85
2022/03/29 17:43:49;;;;;;;29.07;18.13;;;;;;;14.37;26.71;99757.00;10374193;28;20200;-85
2022/03/29 17:48:55;;;;;;;23.97;17.57;;;;;;;15.32;24.97;99750.63;10356784;28;20490;-84
2022/03/29 17:53:57;;;;;;;25.33;17.77;;;;;;;14.65;26.37;99754.47;10379868;28;20197;-86
2022/03/29 17:59:00;;;;;;;26.10;16.67;;;;;;;15.51;25.17;99753.22;10360764;28;20197;-87
2022/03/29 18:04:06;;;;;;;26.70;17.93;;;;;;;15.15;26.24;99748.47;10391963;28;20201;-86
2022/03/29 18:09:08;;;;;;;25.90;17.60;;;;;;;15.28;25.66;99749.81;10359837;28;20232;-85
2022/03/29 18:14:11;;;;;;;27.73;18.23;;;;;;;14.70;26.89;99750.44;10364170;28;20229;-85
2022/03/29 18:19:13;;;;;;;26.80;18.03;;;;;;;15.16;26.29;99758.63;10388814;28;20250;-86
2022/03/29 18:24:15;;;;;;;26.83;17.27;;;;;;;15.12;26.23;99747.22;10366006;28;20274;-87
2022/03/29 18:29:18;;;;;;;27.43;18.03;;;;;;;14.94;26.47;99751.91;10372328;28;20307;-86
2022/03/29 18:34:20;;;;;;;23.63;16.63;;;;;;;14.97;26.69;99749.09;10353830;28;20536;-87
2022/03/29 18:39:24;;;;;;;24.90;17.40;;;;;;;15.09;26.49;99745.16;10397909;28;20255;-86
2022/03/29 18:44:26;;;;;;;26.33;18.03;;;;;;;15.31;25.86;99749.81;10398662;28;20675;-87
2022/03/29 18:49:29;;;;;;;26.23;18.47;;;;;;;15.17;26.39;99751.72;10389849;28;20224;-87
2022/03/29 18:54:31;;;;;;;28.37;18.30;;;;;;;15.12;26.53;99740.72;10374513;28;20553;-87
2022/03/29 18:59:35;;;;;;;30.77;20.13;;;;;;;14.76;26.91;99746.06;10378077;28;20201;-87
2022/03/29 19:04:38;;;;;;;33.90;19.70;;;;;;;14.63;27.66;99753.25;10352939;28;20206;-86
2022/03/29 19:09:42;;;;;;;32.50;19.97;;;;;;;14.48;27.59;99752.25;10392721;28;20232;-86
2022/03/29 19:14:44;;;;;;;28.43;20.40;;;;;;;14.84;27.21;99749.78;10399621;28;20709;-86
2022/03/29 19:19:47;;;;;;;34.80;21.13;;;;;;;14.88;27.43;99747.78;10388664;28;20208;-85
2022/03/29 19:24:50;;;;;;;31.77;20.57;;;;;;;14.81;27.07;99747.72;10362736;28;20213;-86
2022/03/29 19:29:52;;;;;;;36.80;24.13;;;;;;;14.81;27.35;99748.53;10384582;28;20343;-89
2022/03/29 19:34:54;;;;;;;32.97;21.07;;;;;;;14.80;27.32;99746.88;10395660;28;20259;-86
2022/03/29 19:39:58;;;;;;;30.23;20.83;;;;;;;14.53;26.86;99746.22;10375095;28;20598;-87
2022/03/29 19:45:05;;;;;;;26.83;19.13;;;;;;;14.27;27.36;99743.44;10366251;28;20240;-86
2022/03/29 19:50:13;;;;;;;25.33;16.37;;;;;;;14.33;26.58;99749.63;10378440;28;20594;-86
2022/03/29 19:55:15;;;;;;;28.93;17.20;;;;;;;14.44;26.54;99740.03;10381390;28;20194;-85
2022/03/29 20:00:19;;;;;;;24.47;16.33;;;;;;;14.51;26.54;99740.09;10364018;28;20443;-85
2022/03/29 20:05:21;;;;;;;24.87;16.37;;;;;;;14.02;26.06;99740.28;10364586;28;20225;-86
2022/03/29 20:10:24;;;;;;;23.93;15.10;;;;;;;14.23;25.96;99736.91;10362822;28;20201;-86
2022/03/29 20:15:26;;;;;;;24.57;16.07;;;;;;;13.99;26.23;99735.38;10370031;28;20286;-85
2022/03/29 20:20:28;;;;;;;23.77;14.90;;;;;;;14.30;25.95;99728.44;10363769;28;20217;-88
2022/03/29 20:25:31;;;;;;;22.57;14.63;;;;;;;13.88;26.57;99725.91;10382110;28;20303;-88
2022/03/29 20:30:33;;;;;;;24.03;15.03;;;;;;;14.04;26.26;99720.00;10363492;28;20201;-88
2022/03/29 20:35:35;;;;;;;23.57;15.87;;;;;;;13.67;26.61;99717.09;10322885;28;20610;-88
2022/03/29 20:40:39;;;;;;;20.30;15.10;;;;;;;13.59;26.46;99714.13;10365423;28;20236;-88
2022/03/29 20:45:41;;;;;;;20.63;14.90;;;;;;;13.30;26.62;99709.22;10338849;28;20210;-89
2022/03/29 20:50:45;;;;;;;24.40;15.90;;;;;;;12.98;27.26;99722.09;10354694;28;20252;-87
2022/03/29 20:55:48;;;;;;;24.30;15.57;;;;;;;13.58;26.77;99711.69;10362479;28;20675;-86
2022/03/29 21:00:50;;;;;;;27.60;15.20;;;;;;;12.48;27.96;99724.81;10346957;28;20737;-87
2022/03/29 21:05:52;;;;;;;25.10;14.07;;;;;;;13.07;27.20;99712.13;10369153;28;20196;-86
2022/03/29 21:10:55;;;;;;;26.30;14.27;;;;;;;12.36;28.41;99721.34;10403313;28;20216;-86
2022/03/29 21:15:58;;;;;;;21.73;14.23;;;;;;;11.55;29.27;99720.41;10384811;28;20540;-85
2022/03/29 21:21:03;;;;;;;26.57;14.27;;;;;;;12.00;28.55;99726.28;10392375;28;20507;-87
2022/03/29 21:26:06;;;;;;;23.30;12.83;;;;;;;11.83;29.23;99719.03;10401999;28;20279;-86
2022/03/29 21:31:09;;;;;;;29.10;13.87;;;;;;;12.92;28.08;99706.59;10386851;28;20258;-86
2022/03/29 21:36:12;;;;;;;23.37;13.10;;;;;;;13.15;27.22;99702.53;10403102;28;20215;-85
2022/03/29 21:41:14;;;;;;;19.60;12.83;;;;;;;12.18;28.52;99707.63;10364202;28;20217;-86
2022/03/29 21:46:16;;;;;;;20.83;13.23;;;;;;;11.93;29.22;99708.28;10361753;28;20243;-86
2022/03/29 21:51:19;;;;;;;23.17;13.50;;;;;;;12.35;28.91;99705.53;10379353;28;20212;-86
2022/03/29 21:56:39;;;;;;;21.03;11.77;;;;;;;11.78;29.52;99704.38;10405233;28;20192;-86
2022/03/29 22:02:01;;;;;;;24.20;12.83;;;;;;;12.78;27.83;99699.44;10359225;28;20209;-86
2022/03/29 22:07:21;;;;;;;21.17;13.07;;;;;;;12.55;28.40;99704.31;10379312;28;20228;-86
2022/03/29 22:12:24;;;;;;;22.87;13.17;;;;;;;12.99;27.72;99704.69;10343489;28;20580;-87
2022/03/29 22:17:26;;;;;;;17.40;11.67;;;;;;;12.78;28.28;99704.31;10350980;28;20221;-86
2022/03/29 22:22:30;;;;;;;20.37;12.37;;;;;;;12.58;28.32;99706.38;10359966;28;20530;-86
2022/03/29 22:27:32;;;;;;;19.23;12.27;;;;;;;12.16;29.04;99704.38;10360432;28;20550;-86
2022/03/29 22:32:35;;;;;;;19.57;13.50;;;;;;;12.52;28.63;99691.69;10359944;28;20495;-86
2022/03/29 22:37:38;;;;;;;23.90;14.00;;;;;;;13.18;27.62;99683.91;10359462;28;20247;-86
2022/03/29 22:42:40;;;;;;;23.93;12.40;;;;;;;12.74;28.47;99690.06;10344466;28;20244;-85
2022/03/29 22:47:42;;;;;;;25.53;12.27;;;;;;;12.88;28.06;99686.66;10359778;28;20518;-86
2022/03/29 22:52:46;;;;;;;20.30;12.70;;;;;;;12.36;29.00;99676.81;10360295;28;20193;-86
2022/03/29 22:57:49;;;;;;;26.03;12.43;;;;;;;12.82;28.52;99683.28;10360572;28;20328;-85